Time;durP1;ratioP1;P1;durP2;ratioP2;P2;SDS_P1;SDS_P2;PMS_P1;PMS_P2;Temp;Humidity;BMP_temperature;BMP_pressure;BME280_temperature;BME280_humidity;BME280_pressure;Samples;Min_cycle;Max_cycle;Signal;HPM_P1;HPM_P2
2022/05/19 00:02:07;;;;;;;22.48;20.60;;;17.80;99.90;;;;;;4995569;28;20100;-74
2022/05/19 00:04:35;;;;;;;22.20;20.50;;;17.70;99.90;;;;;;4994803;28;20756;-74
2022/05/19 00:07:03;;;;;;;22.23;20.58;;;17.60;99.90;;;;;;4992735;28;20038;-75
2022/05/19 00:09:30;;;;;;;23.02;21.30;;;17.50;99.90;;;;;;4994725;28;20057;-75
2022/05/19 00:12:01;;;;;;;22.30;20.33;;;17.40;99.90;;;;;;4994100;28;20108;-74
2022/05/19 00:14:27;;;;;;;23.65;21.63;;;17.40;99.90;;;;;;4994394;28;20720;-73
2022/05/19 00:16:56;;;;;;;22.60;20.90;;;17.40;99.90;;;;;;4996003;28;20137;-75
2022/05/19 00:19:24;;;;;;;22.23;20.42;;;17.40;99.90;;;;;;4995829;28;20054;-74
2022/05/19 00:21:51;;;;;;;22.65;20.80;;;17.50;99.90;;;;;;4995611;28;20523;-74
2022/05/19 00:24:20;;;;;;;23.05;21.45;;;17.50;99.90;;;;;;4999500;28;20642;-74
2022/05/19 00:26:46;;;;;;;23.13;21.13;;;17.50;99.90;;;;;;5000015;28;20073;-76
2022/05/19 00:29:14;;;;;;;23.23;21.63;;;17.50;99.90;;;;;;4996964;28;20271;-76
2022/05/19 00:31:41;;;;;;;22.90;21.25;;;17.40;99.90;;;;;;4995174;28;20153;-77
2022/05/19 00:34:08;;;;;;;22.30;20.55;;;17.50;99.90;;;;;;4999152;28;20076;-75
2022/05/19 00:36:35;;;;;;;22.85;21.15;;;17.50;99.90;;;;;;4997078;28;20050;-77
2022/05/19 00:39:03;;;;;;;22.42;20.73;;;17.50;99.90;;;;;;5000134;28;20050;-74
2022/05/19 00:41:30;;;;;;;21.65;20.17;;;17.50;99.90;;;;;;4996143;28;20057;-74
2022/05/19 00:44:03;;;;;;;23.63;21.92;;;17.40;99.90;;;;;;4996274;28;20053;-74
2022/05/19 00:46:45;;;;;;;22.98;21.20;;;17.40;99.90;;;;;;5008069;28;20056;-74
2022/05/19 00:49:26;;;;;;;23.27;21.52;;;17.40;99.90;;;;;;4998531;28;20116;-74
2022/05/19 00:52:04;;;;;;;22.80;21.30;;;17.30;99.90;;;;;;4978044;28;20046;-75
2022/05/19 00:55:14;;;;;;;23.02;21.48;;;17.30;99.90;;;;;;4994910;28;20745;-75
2022/05/19 00:57:46;;;;;;;23.05;21.27;;;17.20;99.90;;;;;;4997979;28;20054;-75
2022/05/19 01:00:20;;;;;;;23.65;21.92;;;17.20;99.90;;;;;;4988202;28;20053;-76
2022/05/19 01:02:59;;;;;;;22.98;21.40;;;17.10;99.90;;;;;;5016286;28;20057;-75
2022/05/19 01:05:31;;;;;;;23.92;22.10;;;17.00;99.90;;;;;;5000896;28;20046;-76
2022/05/19 01:08:20;;;;;;;23.08;21.42;;;16.90;99.90;;;;;;4999491;28;20050;-76
2022/05/19 01:10:48;;;;;;;22.67;21.10;;;16.90;99.90;;;;;;5007835;22;20536;-73
2022/05/19 01:13:15;;;;;;;24.25;22.27;;;16.70;99.90;;;;;;4983539;28;20524;-70
2022/05/19 01:15:50;;;;;;;23.52;21.63;;;16.80;99.90;;;;;;5000288;28;20080;-72
2022/05/19 01:18:21;;;;;;;22.73;20.83;;;16.70;99.90;;;;;;4986100;28;20050;-72
2022/05/19 01:20:48;;;;;;;22.75;21.17;;;16.60;99.90;;;;;;4986479;28;20074;-70
2022/05/19 01:23:32;;;;;;;22.10;20.63;;;16.50;99.90;;;;;;4985227;28;20454;-70
2022/05/19 01:26:20;;;;;;;22.23;20.80;;;16.60;99.90;;;;;;4966912;28;20138;-71
2022/05/19 01:28:48;;;;;;;22.50;20.83;;;16.50;99.90;;;;;;4967290;28;20046;-71
2022/05/19 01:31:28;;;;;;;23.05;21.42;;;16.40;99.90;;;;;;5001442;28;20424;-73
2022/05/19 01:33:55;;;;;;;21.98;20.48;;;16.50;99.90;;;;;;5002849;28;20045;-71
2022/05/19 01:36:22;;;;;;;22.77;21.15;;;16.70;99.90;;;;;;5003018;28;20104;-70
2022/05/19 01:39:00;;;;;;;22.33;20.60;;;16.80;99.90;;;;;;5006151;28;20042;-70
2022/05/19 01:41:44;;;;;;;22.42;20.77;;;16.90;99.90;;;;;;4988081;28;20564;-70
2022/05/19 01:44:52;;;;;;;23.45;21.58;;;16.80;99.90;;;;;;4982950;28;20500;-71
2022/05/19 01:47:43;;;;;;;23.13;21.38;;;16.80;99.90;;;;;;4976326;28;20572;-70
2022/05/19 01:50:41;;;;;;;23.38;21.52;;;16.70;99.90;;;;;;4984789;28;20061;-70
2022/05/19 01:53:31;;;;;;;23.13;21.27;;;16.70;99.90;;;;;;4984676;28;20060;-70
2022/05/19 01:56:04;;;;;;;22.35;20.70;;;16.70;99.90;;;;;;4985558;28;20173;-70
2022/05/19 01:58:45;;;;;;;24.00;22.00;;;16.60;99.90;;;;;;4968913;28;20469;-71
2022/05/19 02:01:14;;;;;;;23.52;21.75;;;16.60;99.90;;;;;;5001116;28;20104;-70
2022/05/19 02:03:47;;;;;;;23.73;21.70;;;16.50;99.90;;;;;;4972739;28;20046;-71
2022/05/19 02:06:39;;;;;;;22.77;20.92;;;16.50;99.90;;;;;;4985717;28;20042;-70
2022/05/19 02:09:18;;;;;;;22.83;21.17;;;16.30;99.90;;;;;;4985638;28;20583;-71
2022/05/19 02:11:54;;;;;;;22.58;21.08;;;16.40;99.90;;;;;;4985084;28;20046;-71
2022/05/19 02:14:30;;;;;;;22.23;20.60;;;16.40;99.90;;;;;;4985331;28;20050;-70
2022/05/19 02:16:58;;;;;;;22.95;20.85;;;16.40;99.90;;;;;;4983610;28;20078;-71
2022/05/19 02:19:30;;;;;;;22.65;20.85;;;16.40;99.90;;;;;;4984350;28;20141;-71
2022/05/19 02:21:57;;;;;;;23.50;21.60;;;16.60;99.90;;;;;;4984317;28;20043;-70
2022/05/19 02:24:26;;;;;;;22.52;20.77;;;16.60;99.90;;;;;;4985328;28;20088;-71
2022/05/19 02:26:52;;;;;;;23.08;21.25;;;16.70;99.90;;;;;;4987683;28;20085;-71
2022/05/19 02:29:26;;;;;;;22.58;20.98;;;16.60;99.90;;;;;;4988825;28;20472;-71
2022/05/19 02:31:53;;;;;;;22.50;20.65;;;16.70;99.90;;;;;;4999859;28;20049;-71
2022/05/19 02:34:20;;;;;;;22.80;21.30;;;16.70;99.90;;;;;;4984591;28;20096;-70
2022/05/19 02:36:47;;;;;;;22.95;21.15;;;16.70;99.90;;;;;;4981956;28;20133;-71
2022/05/19 02:39:14;;;;;;;23.77;22.08;;;16.70;99.90;;;;;;4984537;28;20046;-70
2022/05/19 02:41:40;;;;;;;22.75;21.15;;;16.70;99.90;;;;;;4983840;28;20070;-71
2022/05/19 02:44:08;;;;;;;23.33;21.55;;;16.70;99.90;;;;;;4986610;28;20093;-70
2022/05/19 02:46:34;;;;;;;23.70;21.80;;;16.70;99.90;;;;;;4988887;28;20121;-70
2022/05/19 02:49:02;;;;;;;22.75;21.08;;;16.70;99.90;;;;;;5002704;28;20077;-71
2022/05/19 02:51:30;;;;;;;22.85;21.15;;;16.70;99.90;;;;;;4984280;28;20239;-71
2022/05/19 02:53:57;;;;;;;23.58;21.70;;;16.70;99.90;;;;;;4989843;28;20343;-70
2022/05/19 02:56:24;;;;;;;23.80;21.77;;;16.60;99.90;;;;;;4982130;28;20038;-70
2022/05/19 02:58:50;;;;;;;23.92;21.92;;;16.60;99.90;;;;;;4986468;28;20092;-70
2022/05/19 03:01:17;;;;;;;23.67;21.88;;;16.60;99.90;;;;;;5001353;28;20038;-70
2022/05/19 03:03:44;;;;;;;22.88;21.15;;;16.60;99.90;;;;;;5005635;28;20136;-70
2022/05/19 03:06:11;;;;;;;22.88;21.10;;;16.60;99.90;;;;;;5005325;28;20100;-70
2022/05/19 03:08:37;;;;;;;21.95;20.25;;;16.60;99.90;;;;;;4987131;28;20102;-70
2022/05/19 03:11:04;;;;;;;23.17;21.35;;;16.50;99.90;;;;;;4986303;28;20046;-71
2022/05/19 03:13:31;;;;;;;23.38;21.73;;;16.60;99.90;;;;;;4989936;28;20046;-70
2022/05/19 03:15:58;;;;;;;22.35;20.58;;;16.70;99.90;;;;;;4985609;28;20413;-72
2022/05/19 03:18:24;;;;;;;22.77;21.08;;;16.80;99.90;;;;;;4985965;28;20524;-71
2022/05/19 03:20:52;;;;;;;21.83;20.40;;;16.90;99.90;;;;;;4985320;28;20073;-72
2022/05/19 03:23:18;;;;;;;22.63;21.05;;;16.90;99.90;;;;;;4968130;28;20112;-73
2022/05/19 03:25:45;;;;;;;23.05;21.60;;;17.10;99.90;;;;;;4985707;28;20077;-70
2022/05/19 03:28:14;;;;;;;22.98;21.05;;;17.10;99.90;;;;;;4988642;28;20062;-70
2022/05/19 03:30:41;;;;;;;21.35;19.92;;;17.30;99.90;;;;;;4995892;28;20076;-71
2022/05/19 03:33:08;;;;;;;22.15;20.42;;;17.40;99.90;;;;;;4991604;28;20046;-70
2022/05/19 03:35:35;;;;;;;22.27;20.77;;;17.50;99.90;;;;;;4985184;28;20105;-70
2022/05/19 03:38:01;;;;;;;22.23;20.70;;;17.60;99.90;;;;;;4986541;28;20137;-70
2022/05/19 03:40:29;;;;;;;20.98;19.38;;;17.60;99.90;;;;;;4985179;28;20054;-71
2022/05/19 03:42:55;;;;;;;22.13;20.40;;;17.70;99.90;;;;;;4985320;28;20062;-69
2022/05/19 03:45:22;;;;;;;23.13;21.52;;;17.70;99.90;;;;;;4983711;28;20112;-70
2022/05/19 03:47:49;;;;;;;24.63;22.70;;;17.70;99.90;;;;;;4984928;28;20472;-73
2022/05/19 03:50:16;;;;;;;24.45;22.85;;;17.70;99.90;;;;;;4984292;28;20654;-70
2022/05/19 03:52:44;;;;;;;23.70;22.25;;;17.70;99.90;;;;;;4985240;28;20068;-72
2022/05/19 03:55:12;;;;;;;24.85;23.15;;;17.80;99.90;;;;;;4982610;28;20124;-72
2022/05/19 03:57:40;;;;;;;24.42;22.73;;;17.80;99.90;;;;;;4987489;28;20054;-72
2022/05/19 04:00:08;;;;;;;24.65;22.90;;;17.70;99.90;;;;;;4986774;28;20112;-71
2022/05/19 04:02:41;;;;;;;24.58;22.73;;;17.70;99.90;;;;;;4993475;28;20088;-70
2022/05/19 04:05:09;;;;;;;24.55;23.02;;;17.70;99.90;;;;;;5007343;28;20053;-70
2022/05/19 04:07:37;;;;;;;25.25;23.20;;;17.60;99.90;;;;;;5007876;28;20141;-70
2022/05/19 04:10:05;;;;;;;24.15;22.38;;;17.60;99.90;;;;;;5006877;28;20076;-70
2022/05/19 04:12:32;;;;;;;24.27;22.77;;;17.70;99.90;;;;;;5003238;28;20054;-71
2022/05/19 04:14:58;;;;;;;23.85;22.20;;;17.60;99.90;;;;;;4980561;28;20046;-70
2022/05/19 04:17:25;;;;;;;23.95;22.42;;;17.60;99.90;;;;;;4969333;28;20512;-71
2022/05/19 04:19:52;;;;;;;24.27;22.35;;;17.60;99.90;;;;;;4988213;28;20046;-71
2022/05/19 04:22:19;;;;;;;23.48;22.08;;;17.60;99.90;;;;;;4986782;28;20077;-71
2022/05/19 04:24:45;;;;;;;24.50;22.38;;;17.60;99.90;;;;;;4988333;28;20074;-71
2022/05/19 04:27:14;;;;;;;24.83;23.05;;;17.60;99.90;;;;;;4988200;28;20102;-70
2022/05/19 04:29:40;;;;;;;25.45;23.63;;;17.60;99.90;;;;;;4988766;28;20137;-71
2022/05/19 04:32:07;;;;;;;25.73;23.88;;;17.60;99.90;;;;;;4985372;28;20101;-70
2022/05/19 04:34:34;;;;;;;25.13;23.52;;;17.70;99.90;;;;;;5003964;28;20100;-70
2022/05/19 04:37:04;;;;;;;24.60;23.00;;;17.70;99.90;;;;;;4990072;28;20116;-70
2022/05/19 04:39:30;;;;;;;25.60;23.90;;;17.80;99.90;;;;;;4987316;28;20046;-70
2022/05/19 04:41:57;;;;;;;25.38;23.63;;;17.70;99.90;;;;;;4987229;28;20073;-70
2022/05/19 04:44:24;;;;;;;26.40;24.55;;;17.80;99.90;;;;;;4987636;28;20072;-71
2022/05/19 04:46:50;;;;;;;25.60;23.80;;;17.90;99.90;;;;;;4970236;28;20051;-70
2022/05/19 04:49:17;;;;;;;25.35;23.55;;;17.90;99.90;;;;;;4986318;28;20559;-70
2022/05/19 04:51:44;;;;;;;25.23;23.58;;;18.00;99.90;;;;;;4988075;28;20085;-71
2022/05/19 04:54:10;;;;;;;26.17;24.13;;;18.10;99.90;;;;;;4988042;28;20666;-70
2022/05/19 04:56:40;;;;;;;25.63;23.88;;;18.10;99.90;;;;;;4987207;28;20050;-71
2022/05/19 04:59:13;;;;;;;25.35;23.75;;;18.20;99.90;;;;;;4986992;28;20086;-70
2022/05/19 05:01:48;;;;;;;26.75;24.85;;;18.20;99.90;;;;;;4986298;28;20112;-70
2022/05/19 05:04:15;;;;;;;25.85;24.05;;;18.40;99.90;;;;;;5003244;28;20148;-70
2022/05/19 05:06:42;;;;;;;25.90;24.10;;;18.40;99.90;;;;;;5003006;28;20125;-71
2022/05/19 05:09:09;;;;;;;27.50;25.40;;;18.50;99.90;;;;;;5003951;28;20056;-70
2022/05/19 05:11:40;;;;;;;25.05;23.45;;;18.60;99.90;;;;;;4984132;28;20108;-69
2022/05/19 05:14:08;;;;;;;24.98;23.25;;;18.70;99.90;;;;;;4985437;28;20082;-70
2022/05/19 05:16:35;;;;;;;25.73;24.00;;;18.80;99.90;;;;;;4985523;28;20061;-73
2022/05/19 05:19:04;;;;;;;26.50;24.40;;;18.80;99.90;;;;;;4984359;28;20050;-73
2022/05/19 05:21:30;;;;;;;25.15;23.33;;;18.90;99.90;;;;;;4984910;28;20053;-71
2022/05/19 05:23:57;;;;;;;26.83;25.13;;;19.00;99.90;;;;;;4985020;28;20054;-70
2022/05/19 05:26:24;;;;;;;27.60;25.80;;;19.00;99.90;;;;;;4987906;28;20104;-72
2022/05/19 05:28:50;;;;;;;25.98;24.48;;;19.00;99.90;;;;;;5005451;28;20761;-71
2022/05/19 05:31:17;;;;;;;26.75;25.02;;;19.10;99.90;;;;;;4993826;28;20074;-72
2022/05/19 05:33:44;;;;;;;25.90;24.20;;;19.20;99.90;;;;;;4998697;28;20444;-72
2022/05/19 05:36:10;;;;;;;25.60;24.00;;;19.20;99.90;;;;;;5003481;28;20081;-71
2022/05/19 05:38:37;;;;;;;26.60;24.70;;;19.20;99.90;;;;;;5004984;28;20085;-72
2022/05/19 05:41:04;;;;;;;26.42;24.73;;;19.20;99.90;;;;;;4999370;28;20078;-72
2022/05/19 05:43:31;;;;;;;25.38;23.77;;;19.20;99.90;;;;;;4988250;28;20717;-72
2022/05/19 05:46:07;;;;;;;26.75;24.88;;;19.20;99.90;;;;;;4981135;28;20047;-72
2022/05/19 05:48:36;;;;;;;26.38;24.85;;;19.30;99.90;;;;;;4991279;28;20048;-71
2022/05/19 05:51:05;;;;;;;26.35;24.52;;;19.30;99.90;;;;;;4983267;28;20061;-72
2022/05/19 05:53:32;;;;;;;25.85;24.15;;;19.20;99.90;;;;;;4983575;28;20532;-72
2022/05/19 05:55:58;;;;;;;26.20;24.65;;;19.30;99.90;;;;;;4979097;28;20132;-72
2022/05/19 05:58:27;;;;;;;25.10;23.52;;;19.30;99.90;;;;;;4986118;28;20065;-72
2022/05/19 06:00:54;;;;;;;25.00;23.48;;;19.50;99.90;;;;;;4966236;28;20053;-72
2022/05/19 06:03:21;;;;;;;25.67;23.80;;;19.60;99.90;;;;;;4983950;28;20112;-72
2022/05/19 06:05:48;;;;;;;25.42;23.42;;;19.80;99.90;;;;;;4982741;28;20599;-71
2022/05/19 06:08:15;;;;;;;24.02;22.52;;;19.90;99.90;;;;;;4983262;28;20069;-75
2022/05/19 06:10:42;;;;;;;24.10;22.67;;;20.20;99.90;;;;;;4982658;28;20362;-75
2022/05/19 06:13:09;;;;;;;23.33;21.77;;;20.40;99.90;;;;;;4985325;28;20181;-74
2022/05/19 06:15:36;;;;;;;23.30;21.70;;;20.40;99.90;;;;;;4983812;28;20050;-74
2022/05/19 06:18:03;;;;;;;23.92;22.25;;;20.80;99.90;;;;;;4982853;28;20109;-75
2022/05/19 06:20:30;;;;;;;23.52;21.88;;;20.80;99.90;;;;;;5000928;28;20531;-75
2022/05/19 06:22:58;;;;;;;23.20;21.80;;;20.90;99.90;;;;;;4993270;28;20508;-75
2022/05/19 06:25:26;;;;;;;22.55;21.25;;;20.90;99.90;;;;;;4982466;28;20049;-75
2022/05/19 06:27:53;;;;;;;22.80;21.38;;;20.90;99.90;;;;;;4984933;28;20089;-75
2022/05/19 06:30:22;;;;;;;23.75;22.45;;;20.90;99.90;;;;;;4999838;28;20138;-75
2022/05/19 06:32:49;;;;;;;24.52;23.00;;;21.10;99.90;;;;;;4995424;28;20113;-75
2022/05/19 06:35:25;;;;;;;24.23;22.75;;;21.10;99.90;;;;;;4982095;28;20054;-75
2022/05/19 06:37:52;;;;;;;24.05;22.65;;;21.30;99.90;;;;;;4983782;28;20175;-74
2022/05/19 06:40:20;;;;;;;23.77;22.48;;;21.40;99.90;;;;;;4983229;28;20042;-75
2022/05/19 06:42:47;;;;;;;24.35;22.60;;;21.50;99.90;;;;;;4987250;28;20173;-75
2022/05/19 06:45:19;;;;;;;25.48;23.73;;;21.60;99.90;;;;;;4981578;28;20046;-75
2022/05/19 06:47:48;;;;;;;25.23;23.42;;;21.60;99.90;;;;;;4984140;28;20058;-75
2022/05/19 06:50:15;;;;;;;23.55;22.13;;;21.80;99.90;;;;;;4998581;28;20049;-75
2022/05/19 06:52:55;;;;;;;24.10;22.50;;;21.90;99.90;;;;;;5003872;28;20186;-74
2022/05/19 06:55:23;;;;;;;23.50;22.10;;;22.00;99.90;;;;;;4962878;28;20091;-75
2022/05/19 06:57:50;;;;;;;24.05;22.50;;;21.90;99.90;;;;;;4964665;28;20149;-74
2022/05/19 07:00:19;;;;;;;24.30;22.65;;;21.50;99.90;;;;;;4964159;28;20133;-75
2022/05/19 07:02:50;;;;;;;23.73;22.17;;;21.50;99.90;;;;;;4964358;28;20133;-75
2022/05/19 07:05:19;;;;;;;23.92;22.05;;;21.40;99.90;;;;;;4978864;28;20137;-75
2022/05/19 07:07:46;;;;;;;23.20;21.70;;;21.60;99.90;;;;;;4984444;28;20050;-75
2022/05/19 07:10:15;;;;;;;23.27;21.75;;;21.70;99.90;;;;;;5009258;22;20131;-73
2022/05/19 07:12:43;;;;;;;24.80;23.05;;;21.60;99.90;;;;;;5002816;28;20049;-74
2022/05/19 07:15:11;;;;;;;24.90;23.15;;;21.50;99.90;;;;;;5000445;28;20251;-73
2022/05/19 07:17:39;;;;;;;23.48;22.00;;;21.50;99.90;;;;;;5002411;28;20096;-73
2022/05/19 07:22:52;;;;;;;23.50;22.05;;;21.80;99.90;;;;;;5018996;28;20107;-74
2022/05/19 07:25:21;;;;;;;23.23;21.73;;;21.80;99.90;;;;;;5002980;28;20081;-74
2022/05/19 07:27:48;;;;;;;23.42;21.88;;;21.90;99.90;;;;;;5000746;28;20478;-74
2022/05/19 07:30:15;;;;;;;24.15;22.50;;;21.90;99.90;;;;;;4999427;28;20081;-75
2022/05/19 07:32:42;;;;;;;24.48;22.63;;;21.90;99.90;;;;;;5002348;28;20062;-73
2022/05/19 07:35:11;;;;;;;23.65;21.95;;;21.80;99.90;;;;;;5003235;28;20081;-74
2022/05/19 07:37:39;;;;;;;22.80;21.55;;;21.70;99.90;;;;;;5005751;28;20512;-74
2022/05/19 07:40:06;;;;;;;23.75;22.25;;;21.50;99.90;;;;;;5006041;28;20073;-75
2022/05/19 07:42:33;;;;;;;24.63;23.02;;;21.50;99.90;;;;;;5009349;28;20037;-74
2022/05/19 07:45:01;;;;;;;24.10;22.48;;;21.60;99.90;;;;;;5003602;28;20102;-73
2022/05/19 07:47:29;;;;;;;23.90;22.27;;;21.50;99.90;;;;;;5005828;28;20487;-74
2022/05/19 07:49:56;;;;;;;23.90;22.30;;;21.60;99.90;;;;;;5009984;28;20100;-74
2022/05/19 07:52:25;;;;;;;24.30;22.80;;;21.50;99.90;;;;;;5005957;28;20467;-74
2022/05/19 07:54:53;;;;;;;23.92;22.52;;;21.50;99.90;;;;;;5004137;28;20283;-73
2022/05/19 07:57:21;;;;;;;23.88;22.35;;;21.50;99.90;;;;;;5002509;28;20100;-73
2022/05/19 07:59:48;;;;;;;23.95;22.40;;;21.40;99.90;;;;;;5003999;28;20062;-74
2022/05/19 08:02:15;;;;;;;24.67;23.35;;;21.50;99.90;;;;;;5004935;28;20058;-74
2022/05/19 08:04:42;;;;;;;25.25;23.85;;;21.90;99.90;;;;;;5020738;28;20050;-74
2022/05/19 08:07:09;;;;;;;26.30;24.63;;;22.40;99.90;;;;;;5001837;28;20041;-73
2022/05/19 08:15:34;;;;;;;;;;;22.90;99.90;;;;;;5007391;28;20334;-74
2022/05/19 08:17:56;;;;;;;24.70;22.92;;;23.20;99.90;;;;;;5005768;28;20088;-74
2022/05/19 08:20:23;;;;;;;23.98;22.58;;;23.20;99.90;;;;;;5015417;28;20472;-73
2022/05/19 08:22:50;;;;;;;24.25;22.83;;;23.20;99.90;;;;;;5023413;28;20552;-72
2022/05/19 08:25:17;;;;;;;24.23;22.85;;;23.30;99.90;;;;;;5007701;28;20080;-73
2022/05/19 08:27:47;;;;;;;25.33;23.60;;;23.50;99.90;;;;;;5005444;28;20042;-74
2022/05/19 08:30:14;;;;;;;25.90;24.05;;;23.50;99.90;;;;;;5003266;28;20103;-73
2022/05/19 08:32:42;;;;;;;24.65;23.25;;;23.50;99.90;;;;;;5001719;28;20458;-74
2022/05/19 08:35:09;;;;;;;25.48;23.85;;;23.90;99.90;;;;;;5000219;28;20046;-75
2022/05/19 08:37:37;;;;;;;26.23;24.55;;;24.20;99.90;;;;;;5001324;28;20096;-73
2022/05/19 08:40:05;;;;;;;26.27;24.55;;;24.30;99.90;;;;;;5005415;28;20473;-74
2022/05/19 08:42:36;;;;;;;24.30;22.90;;;24.20;99.90;;;;;;5007991;28;20096;-74
2022/05/19 08:45:08;;;;;;;26.40;24.88;;;24.20;99.90;;;;;;5000496;28;20041;-74
2022/05/19 08:47:35;;;;;;;26.42;24.45;;;24.30;99.90;;;;;;5005840;28;20572;-74
2022/05/19 08:50:09;;;;;;;26.27;24.77;;;24.70;99.90;;;;;;5006683;28;20066;-74
2022/05/19 08:52:45;;;;;;;25.63;23.88;;;24.70;99.90;;;;;;5004601;28;20375;-74
2022/05/19 08:55:14;;;;;;;26.17;24.48;;;25.00;99.90;;;;;;5003651;28;20116;-74
2022/05/19 08:57:59;;;;;;;25.35;23.85;;;25.10;99.90;;;;;;5005012;28;20057;-74
2022/05/19 09:00:36;;;;;;;;;;;24.70;99.90;;;;;;5005538;28;20183;-73
2022/05/19 09:03:16;;;;;;;27.10;25.30;;;24.70;99.90;;;;;;5001227;28;20407;-74
2022/05/19 09:06:19;;;;;;;26.55;24.90;;;24.90;99.90;;;;;;5004618;28;20958;-74
2022/05/19 09:08:55;;;;;;;27.05;25.52;;;25.00;99.90;;;;;;5000123;28;20054;-74
2022/05/19 09:11:28;;;;;;;27.17;25.27;;;25.10;99.90;;;;;;5002966;28;20038;-75
2022/05/19 09:14:24;;;;;;;25.25;23.83;;;25.30;99.90;;;;;;5004786;28;20110;-74
2022/05/19 09:16:56;;;;;;;26.35;24.63;;;25.00;99.90;;;;;;5001614;28;20078;-74
2022/05/19 09:19:36;;;;;;;25.17;23.77;;;25.20;99.90;;;;;;5004052;28;20058;-73
2022/05/19 09:22:10;;;;;;;25.55;24.05;;;25.30;99.90;;;;;;5002932;28;20112;-74
2022/05/19 09:24:37;;;;;;;25.13;23.52;;;25.20;99.90;;;;;;5003811;28;20070;-75
2022/05/19 09:27:05;;;;;;;25.17;23.58;;;25.30;99.90;;;;;;5001382;28;20450;-74
2022/05/19 09:29:40;;;;;;;25.63;23.95;;;24.90;99.90;;;;;;5005002;28;20076;-73
2022/05/19 09:32:34;;;;;;;26.55;24.85;;;24.90;99.90;;;;;;5001819;28;20046;-73
2022/05/19 09:35:39;;;;;;;26.60;25.08;;;24.90;99.90;;;;;;5002024;28;20077;-74
2022/05/19 09:38:12;;;;;;;26.37;24.77;;;25.10;99.90;;;;;;4897540;29;20056;-75
2022/05/19 09:40:44;;;;;;;25.52;24.02;;;25.20;99.90;;;;;;4981504;28;20679;-73
2022/05/19 09:43:17;;;;;;;26.40;24.90;;;25.30;99.90;;;;;;5006247;28;20037;-75
2022/05/19 09:45:49;;;;;;;28.05;26.08;;;25.30;99.90;;;;;;5001176;28;20123;-73
2022/05/19 09:48:24;;;;;;;27.77;25.88;;;25.20;99.90;;;;;;5002354;28;20432;-73
2022/05/19 09:50:51;;;;;;;;;;;25.10;99.90;;;;;;5002552;28;20313;-74
2022/05/19 09:53:29;;;;;;;25.20;23.70;;;25.40;99.90;;;;;;5003877;28;19956;-74
2022/05/19 09:56:06;;;;;;;25.70;24.13;;;25.40;99.90;;;;;;4999114;28;20045;-75
2022/05/19 09:58:38;;;;;;;26.50;24.83;;;25.40;99.90;;;;;;5001724;28;20308;-74
2022/05/19 10:01:15;;;;;;;26.52;24.70;;;25.50;99.90;;;;;;4982306;28;20069;-75
2022/05/19 10:04:06;;;;;;;26.92;25.30;;;25.40;99.90;;;;;;5003726;28;20077;-74
2022/05/19 10:06:51;;;;;;;26.67;25.08;;;25.40;99.90;;;;;;5015835;28;20060;-74
2022/05/19 10:09:31;;;;;;;25.75;24.25;;;25.40;99.90;;;;;;5003731;28;20057;-74
2022/05/19 10:12:09;;;;;;;26.63;24.95;;;25.40;99.90;;;;;;5005992;28;20290;-75
2022/05/19 10:14:37;;;;;;;25.70;24.02;;;25.30;99.90;;;;;;4999912;28;20065;-74
2022/05/19 10:17:13;;;;;;;25.23;23.60;;;25.30;99.90;;;;;;5002377;28;20041;-75
2022/05/19 10:20:02;;;;;;;27.77;25.88;;;25.40;99.90;;;;;;5003618;28;20857;-75
2022/05/19 10:22:46;;;;;;;26.95;25.42;;;25.40;99.90;;;;;;5004487;28;20555;-75
2022/05/19 10:25:28;;;;;;;27.52;25.92;;;25.60;99.90;;;;;;5001116;28;20061;-75
2022/05/19 10:31:53;;;;;;;27.73;26.13;;;26.30;99.90;;;;;;5001113;28;20128;-75
2022/05/19 10:34:41;;;;;;;29.02;27.10;;;26.30;99.50;;;;;;4997961;28;20088;-75
2022/05/19 10:37:08;;;;;;;28.58;26.88;;;26.60;99.70;;;;;;5001033;28;20053;-76
2022/05/19 10:40:03;;;;;;;27.63;26.13;;;26.80;99.10;;;;;;5002975;28;20042;-75
2022/05/19 10:42:30;;;;;;;;;;;27.10;99.00;;;;;;5005852;28;20073;-74
2022/05/19 10:45:00;;;;;;;29.20;27.60;;;27.20;98.80;;;;;;5001864;28;19925;-74
2022/05/19 10:47:47;;;;;;;28.02;26.33;;;27.40;99.50;;;;;;5000075;28;20496;-75
2022/05/19 10:50:28;;;;;;;28.50;26.85;;;27.80;99.90;;;;;;4986754;28;20062;-74
2022/05/19 10:53:04;;;;;;;28.10;26.60;;;28.20;99.30;;;;;;5001861;28;20602;-74
2022/05/19 10:55:45;;;;;;;28.15;26.55;;;28.00;97.00;;;;;;5001628;28;20049;-74
2022/05/19 10:58:13;;;;;;;27.88;26.17;;;27.40;97.70;;;;;;5002951;28;20060;-74
2022/05/19 11:01:12;;;;;;;28.52;26.85;;;27.40;98.50;;;;;;5000497;28;20049;-75
2022/05/19 11:04:06;;;;;;;28.17;26.58;;;27.30;97.90;;;;;;4952789;28;20073;-75
2022/05/19 11:07:07;;;;;;;28.30;26.70;;;27.30;97.80;;;;;;5016162;28;20673;-75
2022/05/19 11:09:40;;;;;;;27.10;25.48;;;27.40;98.30;;;;;;5001232;28;20054;-74
2022/05/19 11:12:35;;;;;;;28.27;26.63;;;27.60;97.90;;;;;;5004845;28;20048;-75
2022/05/19 11:15:21;;;;;;;27.98;26.38;;;27.70;97.70;;;;;;5000672;28;20149;-75
2022/05/19 11:18:03;;;;;;;27.40;25.55;;;27.60;97.10;;;;;;5016393;28;20406;-76
2022/05/19 11:20:55;;;;;;;25.80;24.40;;;27.30;97.50;;;;;;5002195;28;20116;-74
2022/05/19 11:23:31;;;;;;;25.90;24.42;;;27.10;96.60;;;;;;5002237;28;20599;-75
2022/05/19 11:26:24;;;;;;;28.15;26.45;;;26.90;96.70;;;;;;4997677;28;20105;-75
2022/05/19 11:29:06;;;;;;;27.90;26.40;;;26.90;97.80;;;;;;4991254;28;20038;-74
2022/05/19 11:31:45;;;;;;;26.27;24.75;;;27.00;97.60;;;;;;5000795;28;20050;-74
2022/05/19 11:34:30;;;;;;;26.15;24.65;;;26.90;97.00;;;;;;5002362;28;20634;-75
2022/05/19 11:37:00;;;;;;;26.85;25.13;;;26.90;97.00;;;;;;5002045;28;20152;-74
2022/05/19 11:39:40;;;;;;;26.02;24.70;;;27.00;98.40;;;;;;5001226;28;20046;-74
2022/05/19 11:42:42;;;;;;;25.90;24.40;;;27.00;98.40;;;;;;5004829;28;20045;-75
2022/05/19 11:45:21;;;;;;;27.75;26.15;;;27.00;98.30;;;;;;4976273;28;20077;-74
2022/05/19 11:56:53;;;;;;;27.85;26.02;;;27.00;96.70;;;;;;5002025;28;20119;-75
2022/05/19 11:59:24;;;;;;;27.10;25.05;;;27.00;97.90;;;;;;5000514;28;20137;-75
2022/05/19 12:01:53;;;;;;;28.10;26.17;;;27.20;96.90;;;;;;5016578;28;20041;-75
2022/05/19 12:04:29;;;;;;;26.98;25.10;;;27.20;96.40;;;;;;5000754;28;20064;-75
2022/05/19 12:07:26;;;;;;;27.58;26.05;;;27.40;97.50;;;;;;5000434;28;20103;-75
2022/05/19 12:09:58;;;;;;;26.08;24.67;;;27.40;96.60;;;;;;4998327;28;20085;-75
2022/05/19 12:12:32;;;;;;;27.83;26.08;;;27.50;96.60;;;;;;5003466;28;21315;-74
2022/05/19 12:15:21;;;;;;;26.52;25.02;;;27.60;97.30;;;;;;5000356;28;20049;-75
2022/05/19 12:17:57;;;;;;;26.98;25.48;;;27.50;97.60;;;;;;5001910;28;20115;-74
2022/05/19 12:20:53;;;;;;;27.27;25.58;;;27.40;96.20;;;;;;5005536;28;20513;-75
2022/05/19 12:23:28;;;;;;;25.85;24.35;;;27.40;97.20;;;;;;5005152;28;20073;-75
2022/05/19 12:26:19;;;;;;;26.10;24.23;;;27.60;97.40;;;;;;5011176;28;20046;-75
2022/05/19 12:29:23;;;;;;;25.75;24.27;;;27.90;95.90;;;;;;5007047;28;20046;-74
2022/05/19 12:32:07;;;;;;;26.58;25.15;;;27.90;95.10;;;;;;5006548;28;20050;-75
2022/05/19 12:34:45;;;;;;;27.38;25.63;;;27.80;95.60;;;;;;5006329;28;20373;-74
2022/05/19 12:37:34;;;;;;;28.08;26.58;;;27.70;96.70;;;;;;5005455;28;20069;-73
2022/05/19 12:40:42;;;;;;;27.90;26.10;;;27.80;97.20;;;;;;5007298;28;20061;-73
2022/05/19 12:43:15;;;;;;;28.65;27.15;;;27.70;97.00;;;;;;5007012;28;20607;-73
2022/05/19 12:45:47;;;;;;;26.95;25.45;;;27.80;97.50;;;;;;5003495;28;20050;-73
2022/05/19 12:48:13;;;;;;;27.10;25.50;;;27.90;97.50;;;;;;5004306;28;20076;-74
2022/05/19 12:50:40;;;;;;;27.00;25.52;;;28.10;97.70;;;;;;5004230;28;20041;-74
2022/05/19 12:53:13;;;;;;;27.58;25.92;;;28.30;96.80;;;;;;4985054;28;20520;-72
2022/05/19 12:55:44;;;;;;;26.33;24.92;;;28.10;96.30;;;;;;4994722;28;20134;-73
2022/05/19 12:58:38;;;;;;;25.83;24.38;;;28.20;97.30;;;;;;5005451;28;20054;-73
2022/05/19 13:01:29;;;;;;;28.63;27.02;;;28.20;97.60;;;;;;5004182;28;20523;-73
2022/05/19 13:04:12;;;;;;;27.73;26.02;;;28.10;96.00;;;;;;5005688;28;20054;-74
2022/05/19 13:06:46;;;;;;;27.05;25.65;;;27.90;96.50;;;;;;5004602;28;20450;-73
2022/05/19 13:09:19;;;;;;;28.48;26.88;;;27.90;96.90;;;;;;5006068;28;20552;-74
2022/05/19 13:15:00;;;;;;;28.33;26.73;;;27.80;96.70;;;;;;5009253;28;20111;-74
2022/05/19 13:17:39;;;;;;;29.75;27.70;;;28.00;96.80;;;;;;4986001;28;20380;-75
2022/05/19 13:20:17;;;;;;;28.80;27.05;;;28.00;97.90;;;;;;4988374;28;20444;-75
2022/05/19 13:23:23;;;;;;;29.95;28.02;;;28.10;97.30;;;;;;4999220;28;20100;-75